sensor_id;sensor_type;location;lat;lon;timestamp;P1;durP1;ratioP1;P2;durP2;ratioP2
19087;SDS011;9676;50.916;13.352;2023-08-17T00:00:04;16.50;;;14.90;;
19087;SDS011;9676;50.916;13.352;2023-08-17T00:02:57;15.30;;;13.80;;
19087;SDS011;9676;50.916;13.352;2023-08-17T00:05:46;15.73;;;14.13;;
19087;SDS011;9676;50.916;13.352;2023-08-17T00:08:37;15.77;;;14.17;;
19087;SDS011;9676;50.916;13.352;2023-08-17T00:11:27;16.10;;;14.50;;
19087;SDS011;9676;50.916;13.352;2023-08-17T00:14:16;16.40;;;14.70;;
19087;SDS011;9676;50.916;13.352;2023-08-17T00:17:06;17.57;;;15.77;;
19087;SDS011;9676;50.916;13.352;2023-08-17T00:19:55;18.70;;;15.10;;
19087;SDS011;9676;50.916;13.352;2023-08-17T00:22:44;16.30;;;14.57;;
19087;SDS011;9676;50.916;13.352;2023-08-17T00:25:35;16.83;;;14.80;;
19087;SDS011;9676;50.916;13.352;2023-08-17T00:28:24;15.77;;;14.17;;
19087;SDS011;9676;50.916;13.352;2023-08-17T00:31:14;15.70;;;14.10;;
19087;SDS011;9676;50.916;13.352;2023-08-17T00:34:03;16.83;;;15.00;;
19087;SDS011;9676;50.916;13.352;2023-08-17T00:36:53;23.43;;;14.67;;
19087;SDS011;9676;50.916;13.352;2023-08-17T00:39:42;16.23;;;14.63;;
19087;SDS011;9676;50.916;13.352;2023-08-17T00:42:33;16.20;;;14.60;;
19087;SDS011;9676;50.916;13.352;2023-08-17T00:45:24;15.97;;;14.37;;
19087;SDS011;9676;50.916;13.352;2023-08-17T00:48:13;15.93;;;14.40;;
19087;SDS011;9676;50.916;13.352;2023-08-17T00:51:03;16.33;;;14.73;;
19087;SDS011;9676;50.916;13.352;2023-08-17T00:53:54;15.87;;;14.20;;
19087;SDS011;9676;50.916;13.352;2023-08-17T00:56:47;15.63;;;14.13;;
19087;SDS011;9676;50.916;13.352;2023-08-17T00:59:38;16.03;;;14.43;;
19087;SDS011;9676;50.916;13.352;2023-08-17T01:02:31;16.77;;;15.07;;
19087;SDS011;9676;50.916;13.352;2023-08-17T01:05:20;16.33;;;14.70;;
19087;SDS011;9676;50.916;13.352;2023-08-17T01:08:10;17.50;;;15.70;;
19087;SDS011;9676;50.916;13.352;2023-08-17T01:11:01;17.37;;;15.57;;
19087;SDS011;9676;50.916;13.352;2023-08-17T01:14:00;17.40;;;15.60;;
19087;SDS011;9676;50.916;13.352;2023-08-17T01:17:00;16.93;;;15.23;;
19087;SDS011;9676;50.916;13.352;2023-08-17T01:19:59;18.33;;;14.70;;
19087;SDS011;9676;50.916;13.352;2023-08-17T01:22:55;16.07;;;14.47;;
19087;SDS011;9676;50.916;13.352;2023-08-17T01:25:51;16.60;;;14.90;;
19087;SDS011;9676;50.916;13.352;2023-08-17T01:28:41;16.23;;;14.70;;
19087;SDS011;9676;50.916;13.352;2023-08-17T01:31:32;15.57;;;13.97;;
19087;SDS011;9676;50.916;13.352;2023-08-17T01:34:29;16.53;;;14.83;;
19087;SDS011;9676;50.916;13.352;2023-08-17T01:37:28;18.37;;;16.57;;
19087;SDS011;9676;50.916;13.352;2023-08-17T01:40:21;17.30;;;15.47;;
19087;SDS011;9676;50.916;13.352;2023-08-17T01:43:12;16.97;;;15.20;;
19087;SDS011;9676;50.916;13.352;2023-08-17T01:46:04;15.83;;;14.30;;
19087;SDS011;9676;50.916;13.352;2023-08-17T01:48:53;17.40;;;14.57;;
19087;SDS011;9676;50.916;13.352;2023-08-17T01:51:43;17.13;;;15.33;;
19087;SDS011;9676;50.916;13.352;2023-08-17T01:54:33;17.30;;;15.50;;
19087;SDS011;9676;50.916;13.352;2023-08-17T01:57:24;17.00;;;15.20;;
19087;SDS011;9676;50.916;13.352;2023-08-17T02:00:14;17.20;;;15.07;;
19087;SDS011;9676;50.916;13.352;2023-08-17T02:03:04;17.63;;;14.90;;
19087;SDS011;9676;50.916;13.352;2023-08-17T02:05:55;16.93;;;15.13;;
19087;SDS011;9676;50.916;13.352;2023-08-17T02:08:44;17.10;;;15.40;;
19087;SDS011;9676;50.916;13.352;2023-08-17T02:11:34;16.37;;;14.77;;
19087;SDS011;9676;50.916;13.352;2023-08-17T02:14:25;16.53;;;14.90;;
19087;SDS011;9676;50.916;13.352;2023-08-17T02:17:15;17.90;;;15.20;;
19087;SDS011;9676;50.916;13.352;2023-08-17T02:20:06;16.97;;;15.27;;
19087;SDS011;9676;50.916;13.352;2023-08-17T02:22:57;16.77;;;15.03;;
19087;SDS011;9676;50.916;13.352;2023-08-17T02:25:47;16.33;;;14.63;;
19087;SDS011;9676;50.916;13.352;2023-08-17T02:28:36;17.30;;;15.50;;
19087;SDS011;9676;50.916;13.352;2023-08-17T02:31:27;23.40;;;14.97;;
19087;SDS011;9676;50.916;13.352;2023-08-17T02:34:17;16.40;;;14.67;;
19087;SDS011;9676;50.916;13.352;2023-08-17T02:37:06;16.50;;;14.90;;
19087;SDS011;9676;50.916;13.352;2023-08-17T02:39:56;16.43;;;14.80;;
19087;SDS011;9676;50.916;13.352;2023-08-17T02:42:46;17.73;;;15.40;;
19087;SDS011;9676;50.916;13.352;2023-08-17T02:45:36;16.90;;;15.10;;
19087;SDS011;9676;50.916;13.352;2023-08-17T02:48:27;17.33;;;15.53;;
19087;SDS011;9676;50.916;13.352;2023-08-17T02:51:19;19.63;;;14.90;;
19087;SDS011;9676;50.916;13.352;2023-08-17T02:54:08;16.53;;;14.67;;
19087;SDS011;9676;50.916;13.352;2023-08-17T02:56:59;16.10;;;14.50;;
19087;SDS011;9676;50.916;13.352;2023-08-17T02:59:48;17.33;;;15.53;;
19087;SDS011;9676;50.916;13.352;2023-08-17T03:02:38;17.07;;;15.37;;
19087;SDS011;9676;50.916;13.352;2023-08-17T03:05:28;17.20;;;15.40;;
19087;SDS011;9676;50.916;13.352;2023-08-17T03:08:18;16.30;;;14.70;;
19087;SDS011;9676;50.916;13.352;2023-08-17T03:11:07;16.33;;;14.63;;
19087;SDS011;9676;50.916;13.352;2023-08-17T03:13:57;17.20;;;15.40;;
19087;SDS011;9676;50.916;13.352;2023-08-17T03:16:49;17.50;;;15.60;;
19087;SDS011;9676;50.916;13.352;2023-08-17T03:19:39;17.47;;;15.67;;
19087;SDS011;9676;50.916;13.352;2023-08-17T03:22:30;17.10;;;15.30;;
19087;SDS011;9676;50.916;13.352;2023-08-17T03:25:20;17.30;;;15.50;;
19087;SDS011;9676;50.916;13.352;2023-08-17T03:28:09;16.53;;;14.83;;
19087;SDS011;9676;50.916;13.352;2023-08-17T03:30:59;18.27;;;16.30;;
19087;SDS011;9676;50.916;13.352;2023-08-17T03:33:48;17.00;;;15.30;;
19087;SDS011;9676;50.916;13.352;2023-08-17T03:36:38;17.47;;;15.77;;
19087;SDS011;9676;50.916;13.352;2023-08-17T03:39:30;18.17;;;16.17;;
19087;SDS011;9676;50.916;13.352;2023-08-17T03:42:19;19.10;;;16.30;;
19087;SDS011;9676;50.916;13.352;2023-08-17T03:45:09;18.00;;;16.10;;
19087;SDS011;9676;50.916;13.352;2023-08-17T03:47:58;18.07;;;16.17;;
19087;SDS011;9676;50.916;13.352;2023-08-17T03:50:50;21.10;;;15.87;;
19087;SDS011;9676;50.916;13.352;2023-08-17T03:53:40;18.03;;;16.17;;
19087;SDS011;9676;50.916;13.352;2023-08-17T03:56:31;17.30;;;15.60;;
19087;SDS011;9676;50.916;13.352;2023-08-17T03:59:20;18.67;;;16.67;;
19087;SDS011;9676;50.916;13.352;2023-08-17T04:02:10;17.73;;;16.00;;
19087;SDS011;9676;50.916;13.352;2023-08-17T04:04:59;17.83;;;15.93;;
19087;SDS011;9676;50.916;13.352;2023-08-17T04:07:49;17.10;;;15.30;;
19087;SDS011;9676;50.916;13.352;2023-08-17T04:10:39;19.93;;;16.00;;
19087;SDS011;9676;50.916;13.352;2023-08-17T04:13:30;17.67;;;15.97;;
19087;SDS011;9676;50.916;13.352;2023-08-17T04:16:19;17.60;;;15.80;;
19087;SDS011;9676;50.916;13.352;2023-08-17T04:19:09;18.40;;;16.50;;
19087;SDS011;9676;50.916;13.352;2023-08-17T04:21:58;17.27;;;15.47;;
19087;SDS011;9676;50.916;13.352;2023-08-17T04:24:48;17.10;;;15.37;;
19087;SDS011;9676;50.916;13.352;2023-08-17T04:27:37;18.23;;;16.33;;
19087;SDS011;9676;50.916;13.352;2023-08-17T04:30:28;17.07;;;15.37;;
19087;SDS011;9676;50.916;13.352;2023-08-17T04:33:20;17.13;;;15.43;;
19087;SDS011;9676;50.916;13.352;2023-08-17T04:36:10;17.17;;;15.47;;
19087;SDS011;9676;50.916;13.352;2023-08-17T04:38:59;17.23;;;15.50;;
19087;SDS011;9676;50.916;13.352;2023-08-17T04:41:49;17.23;;;15.30;;
19087;SDS011;9676;50.916;13.352;2023-08-17T04:44:45;17.30;;;15.50;;
19087;SDS011;9676;50.916;13.352;2023-08-17T04:47:36;16.90;;;15.30;;
19087;SDS011;9676;50.916;13.352;2023-08-17T04:50:26;17.37;;;15.57;;
19087;SDS011;9676;50.916;13.352;2023-08-17T04:53:15;17.10;;;15.30;;
19087;SDS011;9676;50.916;13.352;2023-08-17T04:56:05;17.20;;;15.50;;
19087;SDS011;9676;50.916;13.352;2023-08-17T04:58:54;16.13;;;14.43;;
19087;SDS011;9676;50.916;13.352;2023-08-17T05:01:44;17.40;;;15.60;;
19087;SDS011;9676;50.916;13.352;2023-08-17T05:04:35;17.00;;;15.27;;
19087;SDS011;9676;50.916;13.352;2023-08-17T05:07:24;17.53;;;15.77;;
19087;SDS011;9676;50.916;13.352;2023-08-17T05:10:14;17.30;;;15.60;;
19087;SDS011;9676;50.916;13.352;2023-08-17T05:13:04;16.33;;;14.73;;
19087;SDS011;9676;50.916;13.352;2023-08-17T05:15:54;20.20;;;15.47;;
19087;SDS011;9676;50.916;13.352;2023-08-17T05:18:44;17.80;;;15.93;;
19087;SDS011;9676;50.916;13.352;2023-08-17T05:21:37;19.77;;;17.63;;
19087;SDS011;9676;50.916;13.352;2023-08-17T05:24:28;17.67;;;15.87;;
19087;SDS011;9676;50.916;13.352;2023-08-17T05:27:17;17.67;;;15.77;;
19087;SDS011;9676;50.916;13.352;2023-08-17T05:30:08;21.33;;;17.20;;
19087;SDS011;9676;50.916;13.352;2023-08-17T05:32:58;19.00;;;16.00;;
19087;SDS011;9676;50.916;13.352;2023-08-17T05:35:52;16.97;;;15.27;;
19087;SDS011;9676;50.916;13.352;2023-08-17T05:38:44;22.70;;;16.67;;
19087;SDS011;9676;50.916;13.352;2023-08-17T05:41:33;17.77;;;15.93;;
19087;SDS011;9676;50.916;13.352;2023-08-17T05:44:22;18.17;;;16.37;;
19087;SDS011;9676;50.916;13.352;2023-08-17T05:47:12;19.77;;;17.20;;
19087;SDS011;9676;50.916;13.352;2023-08-17T05:50:05;19.30;;;17.30;;
19087;SDS011;9676;50.916;13.352;2023-08-17T05:52:55;17.20;;;15.40;;
19087;SDS011;9676;50.916;13.352;2023-08-17T05:55:46;19.03;;;16.83;;
19087;SDS011;9676;50.916;13.352;2023-08-17T05:58:36;17.97;;;16.13;;
19087;SDS011;9676;50.916;13.352;2023-08-17T06:01:26;18.30;;;16.40;;
19087;SDS011;9676;50.916;13.352;2023-08-17T06:04:16;17.57;;;15.80;;
19087;SDS011;9676;50.916;13.352;2023-08-17T06:07:05;19.43;;;16.07;;
19087;SDS011;9676;50.916;13.352;2023-08-17T06:09:55;17.60;;;15.80;;
19087;SDS011;9676;50.916;13.352;2023-08-17T06:12:46;16.87;;;15.20;;
19087;SDS011;9676;50.916;13.352;2023-08-17T06:15:35;16.73;;;15.03;;
19087;SDS011;9676;50.916;13.352;2023-08-17T06:18:24;16.03;;;14.33;;
19087;SDS011;9676;50.916;13.352;2023-08-17T06:21:14;16.50;;;14.87;;
19087;SDS011;9676;50.916;13.352;2023-08-17T06:24:04;16.67;;;15.00;;
19087;SDS011;9676;50.916;13.352;2023-08-17T06:26:54;15.90;;;14.40;;
19087;SDS011;9676;50.916;13.352;2023-08-17T06:29:45;16.30;;;14.50;;
19087;SDS011;9676;50.916;13.352;2023-08-17T06:32:34;16.17;;;14.47;;
19087;SDS011;9676;50.916;13.352;2023-08-17T06:35:23;20.43;;;13.90;;
19087;SDS011;9676;50.916;13.352;2023-08-17T06:38:13;16.63;;;14.80;;
19087;SDS011;9676;50.916;13.352;2023-08-17T06:41:02;15.97;;;14.23;;
19087;SDS011;9676;50.916;13.352;2023-08-17T06:43:52;16.33;;;14.73;;
19087;SDS011;9676;50.916;13.352;2023-08-17T06:46:43;16.63;;;14.80;;
19087;SDS011;9676;50.916;13.352;2023-08-17T06:49:32;15.97;;;14.40;;
19087;SDS011;9676;50.916;13.352;2023-08-17T06:52:22;15.80;;;14.17;;
19087;SDS011;9676;50.916;13.352;2023-08-17T06:55:12;16.13;;;14.53;;
19087;SDS011;9676;50.916;13.352;2023-08-17T06:58:02;15.83;;;14.33;;
19087;SDS011;9676;50.916;13.352;2023-08-17T07:00:52;16.17;;;14.57;;
19087;SDS011;9676;50.916;13.352;2023-08-17T07:03:43;18.13;;;16.20;;
19087;SDS011;9676;50.916;13.352;2023-08-17T07:06:32;17.37;;;15.60;;
19087;SDS011;9676;50.916;13.352;2023-08-17T07:09:22;17.17;;;15.37;;
19087;SDS011;9676;50.916;13.352;2023-08-17T07:12:11;18.07;;;15.13;;
19087;SDS011;9676;50.916;13.352;2023-08-17T07:15:00;18.03;;;15.33;;
19087;SDS011;9676;50.916;13.352;2023-08-17T07:17:51;17.93;;;15.23;;
19087;SDS011;9676;50.916;13.352;2023-08-17T07:20:42;18.90;;;16.90;;
19087;SDS011;9676;50.916;13.352;2023-08-17T07:23:31;18.93;;;17.10;;
19087;SDS011;9676;50.916;13.352;2023-08-17T07:26:21;18.00;;;16.23;;
19087;SDS011;9676;50.916;13.352;2023-08-17T07:29:11;20.20;;;18.07;;
19087;SDS011;9676;50.916;13.352;2023-08-17T07:32:01;21.97;;;17.90;;
19087;SDS011;9676;50.916;13.352;2023-08-17T07:34:51;21.37;;;18.70;;
19087;SDS011;9676;50.916;13.352;2023-08-17T07:37:42;21.60;;;18.97;;
19087;SDS011;9676;50.916;13.352;2023-08-17T07:40:46;19.93;;;17.83;;
19087;SDS011;9676;50.916;13.352;2023-08-17T07:43:35;19.27;;;17.27;;
19087;SDS011;9676;50.916;13.352;2023-08-17T07:46:24;19.37;;;17.37;;
19087;SDS011;9676;50.916;13.352;2023-08-17T07:49:14;19.17;;;17.20;;
19087;SDS011;9676;50.916;13.352;2023-08-17T07:52:19;17.73;;;15.93;;
19087;SDS011;9676;50.916;13.352;2023-08-17T07:55:09;18.90;;;16.90;;
19087;SDS011;9676;50.916;13.352;2023-08-17T07:57:59;21.60;;;18.13;;
19087;SDS011;9676;50.916;13.352;2023-08-17T08:00:48;19.07;;;17.20;;
19087;SDS011;9676;50.916;13.352;2023-08-17T08:03:38;20.63;;;18.50;;
19087;SDS011;9676;50.916;13.352;2023-08-17T08:06:27;19.27;;;17.27;;
19087;SDS011;9676;50.916;13.352;2023-08-17T08:09:17;19.93;;;17.83;;
19087;SDS011;9676;50.916;13.352;2023-08-17T08:12:08;20.73;;;17.90;;
19087;SDS011;9676;50.916;13.352;2023-08-17T08:14:57;18.33;;;16.43;;
19087;SDS011;9676;50.916;13.352;2023-08-17T08:17:46;18.07;;;16.27;;
19087;SDS011;9676;50.916;13.352;2023-08-17T08:20:36;18.37;;;16.47;;
19087;SDS011;9676;50.916;13.352;2023-08-17T08:23:26;18.07;;;16.27;;
19087;SDS011;9676;50.916;13.352;2023-08-17T08:26:16;17.47;;;15.67;;
19087;SDS011;9676;50.916;13.352;2023-08-17T08:29:07;16.90;;;15.20;;
19087;SDS011;9676;50.916;13.352;2023-08-17T08:31:57;16.40;;;14.80;;
19087;SDS011;9676;50.916;13.352;2023-08-17T08:34:47;16.47;;;14.87;;
19087;SDS011;9676;50.916;13.352;2023-08-17T08:37:36;16.70;;;15.00;;
19087;SDS011;9676;50.916;13.352;2023-08-17T08:40:29;16.27;;;14.68;;
19087;SDS011;9676;50.916;13.352;2023-08-17T08:43:20;17.58;;;14.05;;
19087;SDS011;9676;50.916;13.352;2023-08-17T08:46:11;15.77;;;14.18;;
19087;SDS011;9676;50.916;13.352;2023-08-17T08:49:02;14.90;;;13.50;;
19087;SDS011;9676;50.916;13.352;2023-08-17T08:51:53;14.90;;;13.40;;
19087;SDS011;9676;50.916;13.352;2023-08-17T08:54:49;15.47;;;13.97;;
19087;SDS011;9676;50.916;13.352;2023-08-17T08:57:39;16.53;;;14.93;;
19087;SDS011;9676;50.916;13.352;2023-08-17T09:00:30;16.63;;;14.70;;
19087;SDS011;9676;50.916;13.352;2023-08-17T09:03:21;15.40;;;13.90;;
19087;SDS011;9676;50.916;13.352;2023-08-17T09:06:12;15.50;;;14.00;;
19087;SDS011;9676;50.916;13.352;2023-08-17T09:09:04;16.70;;;14.18;;
19087;SDS011;9676;50.916;13.352;2023-08-17T09:11:55;15.45;;;13.93;;
19087;SDS011;9676;50.916;13.352;2023-08-17T09:14:47;14.88;;;13.38;;
19087;SDS011;9676;50.916;13.352;2023-08-17T09:17:37;13.85;;;12.60;;
19087;SDS011;9676;50.916;13.352;2023-08-17T09:20:38;13.68;;;12.20;;
19087;SDS011;9676;50.916;13.352;2023-08-17T09:23:32;13.90;;;12.10;;
19087;SDS011;9676;50.916;13.352;2023-08-17T09:26:24;12.98;;;11.70;;
19087;SDS011;9676;50.916;13.352;2023-08-17T09:29:16;12.82;;;11.63;;
19087;SDS011;9676;50.916;13.352;2023-08-17T09:32:07;12.30;;;11.00;;
19087;SDS011;9676;50.916;13.352;2023-08-17T09:35:00;12.93;;;11.57;;
19087;SDS011;9676;50.916;13.352;2023-08-17T09:37:52;11.68;;;10.57;;
19087;SDS011;9676;50.916;13.352;2023-08-17T09:40:41;12.07;;;10.95;;
19087;SDS011;9676;50.916;13.352;2023-08-17T09:43:31;11.20;;;10.18;;
19087;SDS011;9676;50.916;13.352;2023-08-17T09:46:21;11.20;;;10.20;;
19087;SDS011;9676;50.916;13.352;2023-08-17T09:49:11;11.35;;;10.35;;
19087;SDS011;9676;50.916;13.352;2023-08-17T09:52:01;14.70;;;11.55;;
19087;SDS011;9676;50.916;13.352;2023-08-17T09:54:52;12.15;;;10.95;;
19087;SDS011;9676;50.916;13.352;2023-08-17T09:57:42;12.35;;;11.25;;
19087;SDS011;9676;50.916;13.352;2023-08-17T10:00:32;12.50;;;11.40;;
19087;SDS011;9676;50.916;13.352;2023-08-17T10:03:22;12.60;;;11.40;;
19087;SDS011;9676;50.916;13.352;2023-08-17T10:06:17;12.57;;;11.38;;
19087;SDS011;9676;50.916;13.352;2023-08-17T10:09:14;12.75;;;11.52;;
19087;SDS011;9676;50.916;13.352;2023-08-17T10:12:12;12.73;;;11.52;;
19087;SDS011;9676;50.916;13.352;2023-08-17T10:15:06;12.57;;;11.48;;
19087;SDS011;9676;50.916;13.352;2023-08-17T10:18:08;13.30;;;12.10;;
19087;SDS011;9676;50.916;13.352;2023-08-17T10:21:05;13.43;;;12.03;;
19087;SDS011;9676;50.916;13.352;2023-08-17T10:23:59;13.47;;;12.07;;
19087;SDS011;9676;50.916;13.352;2023-08-17T10:26:49;13.50;;;12.30;;
19087;SDS011;9676;50.916;13.352;2023-08-17T10:29:42;13.93;;;12.37;;
19087;SDS011;9676;50.916;13.352;2023-08-17T10:32:33;13.80;;;12.50;;
19087;SDS011;9676;50.916;13.352;2023-08-17T10:35:23;14.93;;;12.60;;
19087;SDS011;9676;50.916;13.352;2023-08-17T10:38:14;13.40;;;12.10;;
19087;SDS011;9676;50.916;13.352;2023-08-17T10:41:08;14.73;;;13.33;;
19087;SDS011;9676;50.916;13.352;2023-08-17T10:44:04;13.87;;;12.57;;
19087;SDS011;9676;50.916;13.352;2023-08-17T10:46:56;14.37;;;12.87;;
19087;SDS011;9676;50.916;13.352;2023-08-17T10:49:45;14.93;;;13.37;;
19087;SDS011;9676;50.916;13.352;2023-08-17T10:52:36;14.30;;;13.00;;
19087;SDS011;9676;50.916;13.352;2023-08-17T10:55:35;15.30;;;13.70;;
19087;SDS011;9676;50.916;13.352;2023-08-17T10:58:30;14.83;;;12.40;;
19087;SDS011;9676;50.916;13.352;2023-08-17T11:01:31;14.40;;;12.90;;
19087;SDS011;9676;50.916;13.352;2023-08-17T11:04:23;13.37;;;12.17;;
19087;SDS011;9676;50.916;13.352;2023-08-17T11:07:19;14.10;;;12.70;;
19087;SDS011;9676;50.916;13.352;2023-08-17T11:10:12;13.70;;;12.30;;
19087;SDS011;9676;50.916;13.352;2023-08-17T11:13:16;13.30;;;12.10;;
19087;SDS011;9676;50.916;13.352;2023-08-17T11:16:05;14.70;;;13.30;;
19087;SDS011;9676;50.916;13.352;2023-08-17T11:18:57;13.60;;;12.40;;
19087;SDS011;9676;50.916;13.352;2023-08-17T11:21:50;13.00;;;11.70;;
19087;SDS011;9676;50.916;13.352;2023-08-17T11:24:42;13.30;;;12.00;;
19087;SDS011;9676;50.916;13.352;2023-08-17T11:27:32;12.80;;;11.60;;
19087;SDS011;9676;50.916;13.352;2023-08-17T11:30:25;13.20;;;12.00;;
19087;SDS011;9676;50.916;13.352;2023-08-17T11:33:16;13.90;;;12.53;;
19087;SDS011;9676;50.916;13.352;2023-08-17T11:36:06;13.37;;;12.07;;
19087;SDS011;9676;50.916;13.352;2023-08-17T11:38:58;14.03;;;12.63;;
19087;SDS011;9676;50.916;13.352;2023-08-17T11:41:48;13.77;;;12.47;;
19087;SDS011;9676;50.916;13.352;2023-08-17T11:44:39;12.93;;;11.73;;
19087;SDS011;9676;50.916;13.352;2023-08-17T11:47:29;13.03;;;11.83;;
19087;SDS011;9676;50.916;13.352;2023-08-17T11:50:19;13.77;;;12.47;;
19087;SDS011;9676;50.916;13.352;2023-08-17T11:53:09;14.40;;;13.00;;
19087;SDS011;9676;50.916;13.352;2023-08-17T11:56:00;14.23;;;12.83;;
19087;SDS011;9676;50.916;13.352;2023-08-17T11:58:54;13.30;;;12.10;;
19087;SDS011;9676;50.916;13.352;2023-08-17T12:01:44;16.70;;;12.50;;
19087;SDS011;9676;50.916;13.352;2023-08-17T12:04:33;14.23;;;12.77;;
19087;SDS011;9676;50.916;13.352;2023-08-17T12:07:23;16.00;;;12.43;;
19087;SDS011;9676;50.916;13.352;2023-08-17T12:10:13;13.10;;;11.80;;
19087;SDS011;9676;50.916;13.352;2023-08-17T12:13:04;24.03;;;12.47;;
19087;SDS011;9676;50.916;13.352;2023-08-17T12:15:53;15.80;;;12.60;;
19087;SDS011;9676;50.916;13.352;2023-08-17T12:18:44;14.20;;;12.73;;
19087;SDS011;9676;50.916;13.352;2023-08-17T12:21:36;13.47;;;12.17;;
19087;SDS011;9676;50.916;13.352;2023-08-17T12:24:25;13.40;;;12.10;;
19087;SDS011;9676;50.916;13.352;2023-08-17T12:27:15;13.37;;;11.97;;
19087;SDS011;9676;50.916;13.352;2023-08-17T12:30:14;13.90;;;12.60;;
19087;SDS011;9676;50.916;13.352;2023-08-17T12:33:13;13.77;;;12.43;;
19087;SDS011;9676;50.916;13.352;2023-08-17T12:36:03;14.30;;;12.80;;
19087;SDS011;9676;50.916;13.352;2023-08-17T12:38:54;20.33;;;14.23;;
19087;SDS011;9676;50.916;13.352;2023-08-17T12:41:43;19.40;;;13.60;;
19087;SDS011;9676;50.916;13.352;2023-08-17T12:44:33;23.60;;;15.70;;
19087;SDS011;9676;50.916;13.352;2023-08-17T12:47:24;16.17;;;14.53;;
19087;SDS011;9676;50.916;13.352;2023-08-17T12:50:13;15.83;;;14.13;;
19087;SDS011;9676;50.916;13.352;2023-08-17T12:53:04;16.60;;;13.40;;
19087;SDS011;9676;50.916;13.352;2023-08-17T12:55:54;15.13;;;13.50;;
19087;SDS011;9676;50.916;13.352;2023-08-17T12:58:43;13.60;;;12.30;;
19087;SDS011;9676;50.916;13.352;2023-08-17T13:01:32;12.80;;;11.60;;
19087;SDS011;9676;50.916;13.352;2023-08-17T13:04:23;14.07;;;12.57;;
19087;SDS011;9676;50.916;13.352;2023-08-17T13:07:13;14.13;;;12.10;;
19087;SDS011;9676;50.916;13.352;2023-08-17T13:10:03;13.50;;;12.20;;
19087;SDS011;9676;50.916;13.352;2023-08-17T13:12:53;13.30;;;11.87;;
19087;SDS011;9676;50.916;13.352;2023-08-17T13:15:46;13.90;;;12.50;;
19087;SDS011;9676;50.916;13.352;2023-08-17T13:18:35;13.90;;;12.60;;
19087;SDS011;9676;50.916;13.352;2023-08-17T13:21:26;13.43;;;12.13;;
19087;SDS011;9676;50.916;13.352;2023-08-17T13:24:15;14.23;;;12.83;;
19087;SDS011;9676;50.916;13.352;2023-08-17T13:27:05;16.80;;;15.10;;
19087;SDS011;9676;50.916;13.352;2023-08-17T13:29:55;15.43;;;13.93;;
19087;SDS011;9676;50.916;13.352;2023-08-17T13:32:46;14.90;;;13.40;;
19087;SDS011;9676;50.916;13.352;2023-08-17T13:35:35;14.10;;;12.77;;
19087;SDS011;9676;50.916;13.352;2023-08-17T13:38:26;14.27;;;12.90;;
19087;SDS011;9676;50.916;13.352;2023-08-17T13:41:15;14.27;;;12.97;;
19087;SDS011;9676;50.916;13.352;2023-08-17T13:44:05;14.57;;;13.03;;
19087;SDS011;9676;50.916;13.352;2023-08-17T13:46:54;14.30;;;12.90;;
19087;SDS011;9676;50.916;13.352;2023-08-17T13:49:44;14.30;;;12.90;;
19087;SDS011;9676;50.916;13.352;2023-08-17T13:52:33;14.30;;;12.90;;
19087;SDS011;9676;50.916;13.352;2023-08-17T13:55:24;14.40;;;12.90;;
19087;SDS011;9676;50.916;13.352;2023-08-17T13:58:13;15.87;;;13.47;;
19087;SDS011;9676;50.916;13.352;2023-08-17T14:01:03;14.53;;;12.73;;
19087;SDS011;9676;50.916;13.352;2023-08-17T14:03:52;14.70;;;13.30;;
19087;SDS011;9676;50.916;13.352;2023-08-17T14:06:41;13.90;;;12.60;;
19087;SDS011;9676;50.916;13.352;2023-08-17T14:09:31;13.57;;;12.23;;
19087;SDS011;9676;50.916;13.352;2023-08-17T14:12:22;13.87;;;12.50;;
19087;SDS011;9676;50.916;13.352;2023-08-17T14:15:12;14.20;;;12.67;;
19087;SDS011;9676;50.916;13.352;2023-08-17T14:18:01;13.27;;;11.97;;
19087;SDS011;9676;50.916;13.352;2023-08-17T14:20:51;13.13;;;11.80;;
19087;SDS011;9676;50.916;13.352;2023-08-17T14:23:41;13.20;;;11.90;;
19087;SDS011;9676;50.916;13.352;2023-08-17T14:26:30;13.50;;;12.20;;
19087;SDS011;9676;50.916;13.352;2023-08-17T14:29:21;13.37;;;12.07;;
19087;SDS011;9676;50.916;13.352;2023-08-17T14:32:10;14.30;;;12.90;;
19087;SDS011;9676;50.916;13.352;2023-08-17T14:35:00;13.90;;;12.60;;
19087;SDS011;9676;50.916;13.352;2023-08-17T14:37:49;14.13;;;12.80;;
19087;SDS011;9676;50.916;13.352;2023-08-17T14:40:41;14.73;;;13.33;;
19087;SDS011;9676;50.916;13.352;2023-08-17T14:43:32;14.40;;;12.90;;
19087;SDS011;9676;50.916;13.352;2023-08-17T14:46:23;14.93;;;13.43;;
19087;SDS011;9676;50.916;13.352;2023-08-17T14:49:12;13.97;;;12.67;;
19087;SDS011;9676;50.916;13.352;2023-08-17T14:52:01;14.43;;;13.03;;
19087;SDS011;9676;50.916;13.352;2023-08-17T14:54:51;14.47;;;13.17;;
19087;SDS011;9676;50.916;13.352;2023-08-17T14:57:41;14.13;;;12.83;;
19087;SDS011;9676;50.916;13.352;2023-08-17T15:00:30;14.70;;;13.30;;
19087;SDS011;9676;50.916;13.352;2023-08-17T15:03:23;14.70;;;13.30;;
19087;SDS011;9676;50.916;13.352;2023-08-17T15:06:12;13.77;;;12.43;;
19087;SDS011;9676;50.916;13.352;2023-08-17T15:09:20;13.83;;;12.60;;
19087;SDS011;9676;50.916;13.352;2023-08-17T15:12:09;14.47;;;13.17;;
19087;SDS011;9676;50.916;13.352;2023-08-17T15:14:58;15.20;;;13.60;;
19087;SDS011;9676;50.916;13.352;2023-08-17T15:17:50;14.00;;;12.67;;
19087;SDS011;9676;50.916;13.352;2023-08-17T15:20:43;14.50;;;13.10;;
19087;SDS011;9676;50.916;13.352;2023-08-17T15:23:33;14.80;;;13.33;;
19087;SDS011;9676;50.916;13.352;2023-08-17T15:26:22;14.80;;;13.40;;
19087;SDS011;9676;50.916;13.352;2023-08-17T15:29:12;15.20;;;13.60;;
19087;SDS011;9676;50.916;13.352;2023-08-17T15:32:01;15.80;;;14.20;;
19087;SDS011;9676;50.916;13.352;2023-08-17T15:34:50;15.53;;;13.80;;
19087;SDS011;9676;50.916;13.352;2023-08-17T15:37:44;15.27;;;13.80;;
19087;SDS011;9676;50.916;13.352;2023-08-17T15:40:33;15.07;;;13.67;;
19087;SDS011;9676;50.916;13.352;2023-08-17T15:43:23;15.40;;;13.90;;
19087;SDS011;9676;50.916;13.352;2023-08-17T15:46:12;15.80;;;14.20;;
19087;SDS011;9676;50.916;13.352;2023-08-17T15:49:02;14.77;;;13.47;;
19087;SDS011;9676;50.916;13.352;2023-08-17T15:51:52;15.60;;;14.10;;
19087;SDS011;9676;50.916;13.352;2023-08-17T15:54:42;15.80;;;14.30;;
19087;SDS011;9676;50.916;13.352;2023-08-17T15:57:32;16.00;;;14.00;;
19087;SDS011;9676;50.916;13.352;2023-08-17T16:00:21;15.50;;;13.90;;
19087;SDS011;9676;50.916;13.352;2023-08-17T16:03:11;15.33;;;13.90;;
19087;SDS011;9676;50.916;13.352;2023-08-17T16:06:00;15.60;;;14.10;;
19087;SDS011;9676;50.916;13.352;2023-08-17T16:08:49;15.70;;;14.10;;
19087;SDS011;9676;50.916;13.352;2023-08-17T16:11:41;15.77;;;14.27;;
19087;SDS011;9676;50.916;13.352;2023-08-17T16:14:30;16.57;;;14.83;;
19087;SDS011;9676;50.916;13.352;2023-08-17T16:17:20;16.87;;;15.27;;
19087;SDS011;9676;50.916;13.352;2023-08-17T16:20:10;16.43;;;14.87;;
19087;SDS011;9676;50.916;13.352;2023-08-17T16:23:00;16.30;;;14.70;;
19087;SDS011;9676;50.916;13.352;2023-08-17T16:25:50;15.90;;;14.20;;
19087;SDS011;9676;50.916;13.352;2023-08-17T16:28:40;15.80;;;14.30;;
19087;SDS011;9676;50.916;13.352;2023-08-17T16:31:32;17.23;;;15.47;;
19087;SDS011;9676;50.916;13.352;2023-08-17T16:34:23;16.87;;;15.10;;
19087;SDS011;9676;50.916;13.352;2023-08-17T16:37:12;17.27;;;15.67;;